Blooming Grove, Ohio
Current Conditions -  °F | °C
As of 5:53 PM on Wednesday 22 Oct 2014 (Local Time) from KMNN Reporting Station
Overcast Overcast  
Wind Chill: 50°   Ceiling: 3000
Heat Index: 50°   Visibility: 10mi
Dew Point: 41°   Wind: 10mph
Humidity: 71%   Direction: 330°NNW
Pressure: 30.26"   Gusts: NA
Location:  40.712°N, 82.796°W
Report Text: KMNN 222153Z AUTO 33009KT 10SM OVC030 10/05 A3026 RMK AO2 SLP254 T01000050 TSNO
Loading
Personal Weather Stations






























Interactive Weather Map
Tropical Storm Tracking
New forecast layout! Learn more

10-Day Weather Forecast

Advertisements
Track Severe Weather on mobile